Time;durP1;ratioP1;P1;durP2;ratioP2;P2;SDS_P1;SDS_P2;PMS_P1;PMS_P2;Temp;Humidity;BMP_temperature;BMP_pressure;BME280_temperature;BME280_humidity;BME280_pressure;Samples;Min_cycle;Max_cycle;Signal;HPM_P1;HPM_P2
2021/04/03 00:00:26;;;;;;;33.13;18.83;;;23.90;39.90;;;;;;6144946;28;85631;-67
2021/04/03 00:03:27;;;;;;;34.38;19.85;;;23.90;40.00;;;;;;6159962;27;83867;-67
2021/04/03 00:06:27;;;;;;;30.42;18.02;;;23.90;40.00;;;;;;6156110;27;84090;-67
2021/04/03 00:09:28;;;;;;;34.00;19.17;;;23.90;39.80;;;;;;6155457;27;83277;-68
2021/04/03 00:12:29;;;;;;;31.33;19.42;;;23.80;39.80;;;;;;6154519;28;83256;-67
2021/04/03 00:15:29;;;;;;;35.13;19.75;;;23.90;39.90;;;;;;6152951;27;83454;-67
2021/04/03 00:18:30;;;;;;;28.38;17.90;;;23.90;39.60;;;;;;6152785;27;86243;-67
2021/04/03 00:21:30;;;;;;;32.55;18.17;;;23.90;39.10;;;;;;6148021;28;84934;-68
2021/04/03 00:24:31;;;;;;;33.13;19.15;;;23.90;39.30;;;;;;6142332;27;84074;-67
2021/04/03 00:27:31;;;;;;;34.15;20.35;;;23.90;39.20;;;;;;6159873;27;83374;-68
2021/04/03 00:30:32;;;;;;;32.83;19.25;;;23.90;39.30;;;;;;6158577;28;83946;-67
2021/04/03 00:33:32;;;;;;;34.38;19.55;;;23.80;38.60;;;;;;6148034;27;84081;-67
2021/04/03 00:36:33;;;;;;;34.83;20.55;;;23.90;38.50;;;;;;6149713;28;83400;-68
2021/04/03 00:39:33;;;;;;;33.72;19.50;;;23.90;38.20;;;;;;6154160;28;83160;-67
2021/04/03 00:42:34;;;;;;;34.72;20.92;;;23.80;38.00;;;;;;6146850;28;83183;-67
2021/04/03 00:45:38;;;;;;;34.97;20.10;;;23.90;38.10;;;;;;6124831;27;84074;-68
2021/04/03 00:48:38;;;;;;;34.35;19.65;;;23.90;37.60;;;;;;6154919;28;83998;-68
2021/04/03 00:51:39;;;;;;;34.33;19.75;;;23.90;37.80;;;;;;6153200;27;83957;-67
2021/04/03 00:54:39;;;;;;;34.08;19.77;;;23.90;37.70;;;;;;6143857;28;85188;-69
2021/04/03 00:57:40;;;;;;;38.45;21.13;;;23.90;37.40;;;;;;6161397;27;84449;-68
2021/04/03 01:00:41;;;;;;;38.17;21.95;;;23.90;37.10;;;;;;6155043;27;83497;-68
2021/04/03 01:03:42;;;;;;;34.58;20.20;;;23.90;36.90;;;;;;6143736;28;86305;-68
2021/04/03 01:06:43;;;;;;;37.72;20.55;;;23.90;36.80;;;;;;6131620;28;82891;-68
2021/04/03 01:09:44;;;;;;;32.53;20.45;;;23.80;37.00;;;;;;6141744;27;85468;-67
2021/04/03 01:12:45;;;;;;;35.22;19.92;;;23.80;36.40;;;;;;6160708;28;85179;-67
2021/04/03 01:15:46;;;;;;;36.05;20.08;;;23.90;36.30;;;;;;6149260;27;86706;-67
2021/04/03 01:18:47;;;;;;;36.30;20.95;;;23.90;36.60;;;;;;6155273;27;83356;-67
2021/04/03 01:21:49;;;;;;;35.17;20.35;;;23.80;36.40;;;;;;6148590;28;85621;-67
2021/04/03 01:24:53;;;;;;;40.47;22.63;;;23.80;36.20;;;;;;6149325;27;89018;-67
2021/04/03 01:27:54;;;;;;;35.72;20.27;;;23.80;36.30;;;;;;6142627;28;85881;-67
2021/04/03 01:30:57;;;;;;;30.35;18.30;;;23.80;36.20;;;;;;6139844;28;87159;-68
2021/04/03 01:33:57;;;;;;;36.40;20.85;;;23.80;36.20;;;;;;6161199;28;85994;-67
2021/04/03 01:36:58;;;;;;;33.22;19.77;;;23.80;36.40;;;;;;6153831;28;84162;-67
2021/04/03 01:39:59;;;;;;;33.05;19.77;;;23.80;36.00;;;;;;6146973;27;83887;-68
2021/04/03 01:43:00;;;;;;;29.83;18.85;;;23.80;36.20;;;;;;6156737;27;85366;-68
2021/04/03 01:46:01;;;;;;;32.50;18.50;;;23.80;36.20;;;;;;6159825;27;83897;-68
2021/04/03 01:49:02;;;;;;;29.42;18.48;;;23.80;36.20;;;;;;6147758;28;86198;-68
2021/04/03 01:52:02;;;;;;;31.25;18.25;;;23.80;36.30;;;;;;6159335;28;83085;-68
2021/04/03 01:55:04;;;;;;;32.28;19.00;;;23.80;36.60;;;;;;6155092;27;87120;-67
2021/04/03 01:58:07;;;;;;;32.22;17.80;;;23.80;36.20;;;;;;6154947;28;85979;-67
2021/04/03 02:01:11;;;;;;;31.25;18.58;;;23.80;36.50;;;;;;6155799;27;84336;-67
2021/04/03 02:04:12;;;;;;;32.47;18.23;;;23.80;36.10;;;;;;6159538;28;84225;-67
2021/04/03 02:07:13;;;;;;;29.60;17.55;;;23.80;36.20;;;;;;6152645;27;85885;-67
2021/04/03 02:10:21;;;;;;;31.70;17.65;;;23.80;36.40;;;;;;6161253;27;84294;-67
2021/04/03 02:13:22;;;;;;;27.67;17.25;;;23.80;36.40;;;;;;6157531;28;83456;-67
2021/04/03 02:16:26;;;;;;;31.52;17.42;;;23.80;35.90;;;;;;6135851;28;85540;-69
2021/04/03 02:19:27;;;;;;;31.85;18.52;;;23.80;35.80;;;;;;6145969;28;85820;-67
2021/04/03 02:22:28;;;;;;;34.90;18.90;;;23.80;36.00;;;;;;6147218;28;85901;-67
2021/04/03 02:25:36;;;;;;;32.05;17.92;;;23.80;36.00;;;;;;6153546;27;84513;-68
2021/04/03 02:28:38;;;;;;;29.77;18.92;;;23.80;35.20;;;;;;6155537;27;84067;-68
2021/04/03 02:31:40;;;;;;;29.77;17.98;;;23.80;35.30;;;;;;6140297;28;86311;-67
2021/04/03 02:34:41;;;;;;;30.60;18.55;;;23.80;35.20;;;;;;6139300;27;85473;-68
2021/04/03 02:37:41;;;;;;;31.90;18.63;;;23.80;34.80;;;;;;6130979;28;84123;-65
2021/04/03 02:40:42;;;;;;;30.55;16.63;;;23.80;35.50;;;;;;6146456;28;85444;-65
2021/04/03 02:43:43;;;;;;;32.80;17.67;;;23.80;34.80;;;;;;6149202;28;84668;-66
2021/04/03 02:46:44;;;;;;;29.65;17.23;;;23.80;34.70;;;;;;6137830;27;85433;-66
2021/04/03 02:49:46;;;;;;;31.52;18.40;;;23.80;34.80;;;;;;6163611;28;84130;-66
2021/04/03 02:52:48;;;;;;;32.45;18.58;;;23.80;34.60;;;;;;6146313;28;83593;-66
2021/04/03 02:55:50;;;;;;;34.00;19.33;;;23.80;34.50;;;;;;6134925;28;84637;-66
2021/04/03 02:58:53;;;;;;;33.33;19.55;;;23.80;34.90;;;;;;6152318;27;84680;-66
2021/04/03 03:01:54;;;;;;;32.10;19.05;;;23.80;34.50;;;;;;6142096;28;85466;-66
2021/04/03 03:04:55;;;;;;;33.03;18.88;;;23.80;34.40;;;;;;6153697;27;84187;-65
2021/04/03 03:07:56;;;;;;;33.88;18.73;;;23.80;34.50;;;;;;6146790;28;84862;-65
2021/04/03 03:10:57;;;;;;;33.95;20.08;;;23.80;34.10;;;;;;6147701;28;85855;-65
2021/04/03 03:13:57;;;;;;;32.20;18.70;;;23.80;34.20;;;;;;6158430;27;84158;-65
2021/04/03 03:16:58;;;;;;;34.45;20.42;;;23.80;34.20;;;;;;6151419;28;83188;-66
2021/04/03 03:20:00;;;;;;;30.88;18.27;;;23.80;34.20;;;;;;6152098;28;84387;-66
2021/04/03 03:23:01;;;;;;;29.27;17.92;;;23.80;34.50;;;;;;6162217;27;85861;-66
2021/04/03 03:26:02;;;;;;;29.50;16.77;;;23.70;34.60;;;;;;6140983;28;86320;-66
2021/04/03 03:29:09;;;;;;;;;;;23.70;34.30;;;;;;6149872;28;84086;-66
2021/04/03 03:32:10;;;;;;;31.77;18.15;;;23.70;34.50;;;;;;6161859;27;84322;-66
2021/04/03 03:35:17;;;;;;;33.08;18.70;;;23.80;34.40;;;;;;6149435;28;83794;-66
2021/04/03 03:38:19;;;;;;;28.85;17.42;;;23.70;34.00;;;;;;6150862;27;86230;-67
2021/04/03 03:41:20;;;;;;;32.95;18.88;;;23.70;35.00;;;;;;6146284;28;84402;-66
2021/04/03 03:44:21;;;;;;;31.13;17.95;;;23.70;34.30;;;;;;6150432;28;83393;-67
2021/04/03 03:47:21;;;;;;;33.17;18.60;;;23.70;34.20;;;;;;6149365;28;85435;-71
2021/04/03 03:50:26;;;;;;;31.40;17.50;;;23.70;34.10;;;;;;6142002;27;87322;-67
2021/04/03 03:53:27;;;;;;;32.10;18.33;;;23.70;34.20;;;;;;6159176;28;86226;-68
2021/04/03 03:56:28;;;;;;;30.67;18.13;;;23.70;33.80;;;;;;6168987;27;85414;-67
2021/04/03 03:59:30;;;;;;;30.58;17.77;;;23.70;33.50;;;;;;6152994;28;84384;-68
2021/04/03 04:02:30;;;;;;;28.27;17.10;;;23.80;33.30;;;;;;6148148;28;83280;-68
2021/04/03 04:05:31;;;;;;;28.90;17.52;;;23.80;33.70;;;;;;6150212;27;85667;-68
2021/04/03 04:08:35;;;;;;;30.08;18.08;;;23.80;33.80;;;;;;6148729;27;85543;-68
2021/04/03 04:11:44;;;;;;;33.53;18.42;;;23.70;33.10;;;;;;6150317;27;84297;-68
2021/04/03 04:14:53;;;;;;;28.13;16.75;;;23.80;32.90;;;;;;6151398;28;85582;-68
2021/04/03 04:17:54;;;;;;;31.13;18.48;;;23.80;32.80;;;;;;6156833;27;85773;-67
2021/04/03 04:20:54;;;;;;;32.40;18.15;;;23.80;32.70;;;;;;6111260;28;85215;-67
2021/04/03 04:24:01;;;;;;;31.80;18.38;;;23.80;32.60;;;;;;6147015;27;84011;-67
2021/04/03 04:27:04;;;;;;;33.05;19.02;;;23.80;32.60;;;;;;6132430;28;90603;-67
2021/04/03 04:30:11;;;;;;;32.38;18.25;;;23.90;32.50;;;;;;6131914;28;86342;-67
2021/04/03 04:33:18;;;;;;;30.40;18.02;;;23.90;32.50;;;;;;6138181;27;85229;-67
2021/04/03 04:36:20;;;;;;;30.30;17.92;;;23.90;32.50;;;;;;6148770;27;84186;-67
2021/04/03 04:39:22;;;;;;;28.75;16.60;;;23.90;32.40;;;;;;6154428;27;85812;-67
2021/04/03 04:42:23;;;;;;;29.88;18.83;;;23.90;32.30;;;;;;6150550;27;85971;-68
2021/04/03 04:45:31;;;;;;;29.75;17.75;;;24.00;32.20;;;;;;6136226;27;86213;-68
2021/04/03 04:48:32;;;;;;;33.63;18.27;;;23.90;32.80;;;;;;6148535;27;85665;-70
2021/04/03 04:51:40;;;;;;;30.85;17.88;;;24.00;32.20;;;;;;6155318;28;85534;-70
2021/04/03 04:54:48;;;;;;;31.67;18.52;;;24.00;32.50;;;;;;6149579;28;83526;-69
2021/04/03 04:57:50;;;;;;;30.25;18.40;;;24.00;32.40;;;;;;6154906;27;83113;-70
2021/04/03 05:00:58;;;;;;;31.42;16.75;;;24.00;32.50;;;;;;6151691;28;82915;-70
2021/04/03 05:04:07;;;;;;;29.25;17.55;;;24.00;32.80;;;;;;6155457;27;86547;-69
2021/04/03 05:07:08;;;;;;;32.78;18.45;;;24.10;33.00;;;;;;6150664;27;83476;-68
2021/04/03 05:10:08;;;;;;;31.15;17.83;;;24.10;32.90;;;;;;6155157;28;84355;-68
2021/04/03 05:13:09;;;;;;;29.77;17.88;;;24.10;33.20;;;;;;6149122;27;83309;-72
2021/04/03 05:16:09;;;;;;;29.63;18.10;;;24.00;33.40;;;;;;6144506;27;84526;-68
2021/04/03 05:19:10;;;;;;;33.30;16.67;;;24.10;34.70;;;;;;6150759;27;83101;-68
2021/04/03 05:22:11;;;;;;;30.27;17.63;;;24.10;34.10;;;;;;6158090;27;83226;-69
2021/04/03 05:25:14;;;;;;;27.70;16.75;;;24.20;34.30;;;;;;6141739;28;84464;-69
2021/04/03 05:28:14;;;;;;;35.67;18.85;;;24.20;34.20;;;;;;6151380;28;84208;-69
2021/04/03 05:31:20;;;;;;;31.33;17.02;;;24.20;34.50;;;;;;6151754;27;85858;-71
2021/04/03 05:34:20;;;;;;;34.17;17.50;;;24.20;34.40;;;;;;6142458;28;84039;-68
2021/04/03 05:37:21;;;;;;;31.92;17.92;;;24.20;34.30;;;;;;6145571;27;83171;-69
2021/04/03 05:40:21;;;;;;;32.80;18.65;;;24.20;33.90;;;;;;6161355;28;84011;-68
2021/04/03 05:43:22;;;;;;;48.05;21.70;;;24.20;33.40;;;;;;6149419;27;83694;-69
2021/04/03 05:46:22;;;;;;;33.35;19.75;;;24.20;32.90;;;;;;6141245;27;83290;-68
2021/04/03 05:49:23;;;;;;;35.95;20.90;;;24.20;32.80;;;;;;6152380;27;83937;-69
2021/04/03 05:52:23;;;;;;;39.17;22.60;;;24.10;32.90;;;;;;6150739;28;82912;-68
2021/04/03 05:55:24;;;;;;;38.50;22.88;;;24.10;32.90;;;;;;6150616;28;83723;-69
2021/04/03 05:58:25;;;;;;;44.67;22.33;;;24.10;33.10;;;;;;6148706;28;84381;-71
2021/04/03 06:01:25;;;;;;;40.97;23.00;;;24.10;33.70;;;;;;6159107;28;83547;-69
2021/04/03 06:04:26;;;;;;;42.70;23.85;;;24.00;33.30;;;;;;6154324;28;87825;-68
2021/04/03 06:07:26;;;;;;;40.60;22.02;;;24.10;33.50;;;;;;6149066;27;84014;-66
2021/04/03 06:10:27;;;;;;;40.80;23.42;;;24.00;33.60;;;;;;6156318;27;84078;-68
2021/04/03 06:13:28;;;;;;;42.13;23.88;;;24.00;33.90;;;;;;6156434;27;82929;-67
2021/04/03 06:16:28;;;;;;;40.75;22.63;;;24.00;33.60;;;;;;6151413;28;83610;-67
2021/04/03 06:19:29;;;;;;;41.80;22.85;;;24.00;34.30;;;;;;6125641;27;85661;-68
2021/04/03 06:22:29;;;;;;;36.35;20.83;;;24.00;34.00;;;;;;6152791;27;83412;-69
2021/04/03 06:25:30;;;;;;;35.85;20.17;;;24.00;33.80;;;;;;6142261;27;84246;-68
2021/04/03 06:28:30;;;;;;;34.95;20.90;;;24.00;33.40;;;;;;6153467;28;83613;-68
2021/04/03 06:31:31;;;;;;;36.67;21.02;;;24.00;33.80;;;;;;6152180;28;85820;-68
2021/04/03 06:34:32;;;;;;;35.35;20.42;;;24.00;33.80;;;;;;6150699;27;83414;-68
2021/04/03 06:37:33;;;;;;;36.20;20.40;;;23.90;33.30;;;;;;6147001;27;83347;-69
2021/04/03 06:40:33;;;;;;;31.20;19.23;;;23.90;33.40;;;;;;6147008;27;83063;-68
2021/04/03 06:43:34;;;;;;;31.08;18.17;;;23.90;34.10;;;;;;6147343;28;84172;-69
2021/04/03 06:46:34;;;;;;;32.17;18.33;;;23.90;33.60;;;;;;6151458;27;84247;-69
2021/04/03 06:49:35;;;;;;;28.65;17.60;;;23.90;33.70;;;;;;6143928;27;83856;-69
2021/04/03 06:52:35;;;;;;;36.65;18.92;;;23.90;33.30;;;;;;6151920;27;83351;-69
2021/04/03 06:55:36;;;;;;;32.22;17.33;;;23.90;33.90;;;;;;6150895;27;83004;-70
2021/04/03 06:58:37;;;;;;;30.35;17.73;;;23.90;33.70;;;;;;6145185;27;83135;-68
2021/04/03 07:01:38;;;;;;;32.22;17.35;;;23.90;33.80;;;;;;6153343;27;83219;-69
2021/04/03 07:04:38;;;;;;;29.45;16.50;;;23.90;34.30;;;;;;6143835;27;84079;-69
2021/04/03 07:07:39;;;;;;;30.65;17.85;;;23.90;32.90;;;;;;6155065;27;84051;-69
2021/04/03 07:10:39;;;;;;;29.75;16.73;;;23.90;33.10;;;;;;6138025;27;84516;-68
2021/04/03 07:13:40;;;;;;;29.83;16.88;;;23.90;32.90;;;;;;6142485;28;85908;-68
2021/04/03 07:16:40;;;;;;;30.85;16.15;;;23.90;33.20;;;;;;6153133;27;84233;-68
2021/04/03 07:19:41;;;;;;;33.13;17.63;;;23.80;33.30;;;;;;6144787;27;84721;-68
2021/04/03 07:22:42;;;;;;;31.42;17.75;;;23.80;33.30;;;;;;6148798;27;83675;-68
2021/04/03 07:25:42;;;;;;;31.17;18.00;;;23.80;33.20;;;;;;6144188;27;83439;-67
2021/04/03 07:28:43;;;;;;;32.70;17.38;;;23.80;33.30;;;;;;6147159;28;83852;-66
2021/04/03 07:31:46;;;;;;;31.75;17.10;;;23.80;33.20;;;;;;6146179;27;83537;-67
2021/04/03 07:34:46;;;;;;;30.33;17.02;;;23.70;32.80;;;;;;6144326;28;83490;-67
2021/04/03 07:37:47;;;;;;;28.77;16.42;;;23.70;33.30;;;;;;6143991;27;83330;-69
2021/04/03 07:40:48;;;;;;;27.10;14.90;;;23.70;33.00;;;;;;6145145;28;83660;-69
2021/04/03 07:43:49;;;;;;;86.30;36.90;;;23.70;33.70;;;;;;6143287;28;83992;-68
2021/04/03 07:46:49;;;;;;;208.45;83.93;;;23.70;33.70;;;;;;6158039;27;83127;-69
2021/04/03 07:49:51;;;;;;;308.15;123.05;;;23.70;33.70;;;;;;6150167;28;83517;-70
2021/04/03 07:52:54;;;;;;;314.90;120.65;;;23.70;33.90;;;;;;6142849;27;87255;-69
2021/04/03 07:55:54;;;;;;;247.68;98.35;;;23.70;33.90;;;;;;6139208;28;86151;-68
2021/04/03 07:58:55;;;;;;;210.63;83.25;;;23.70;33.70;;;;;;6144810;27;86731;-69
2021/04/03 08:01:55;;;;;;;166.10;69.32;;;23.60;33.50;;;;;;6146935;27;83021;-68
2021/04/03 08:04:56;;;;;;;156.23;63.88;;;23.70;33.70;;;;;;6134036;28;85249;-69
2021/04/03 08:07:56;;;;;;;134.00;56.10;;;23.60;34.10;;;;;;6145554;27;84888;-68
2021/04/03 08:10:57;;;;;;;129.90;50.45;;;23.70;34.10;;;;;;6139749;28;83305;-70
2021/04/03 08:13:57;;;;;;;108.57;47.25;;;23.60;34.00;;;;;;6141284;27;82975;-67
2021/04/03 08:16:58;;;;;;;105.80;41.88;;;23.70;34.10;;;;;;6146853;28;83390;-69
2021/04/03 08:19:59;;;;;;;84.97;33.55;;;23.60;34.00;;;;;;6146908;28;83486;-68
2021/04/03 08:22:59;;;;;;;78.28;33.65;;;23.60;34.40;;;;;;6155016;27;83614;-70
2021/04/03 08:26:00;;;;;;;78.53;33.67;;;23.60;34.60;;;;;;6152969;27;85571;-69
2021/04/03 08:29:01;;;;;;;72.20;30.35;;;23.70;35.80;;;;;;6148005;27;83619;-70
2021/04/03 08:32:02;;;;;;;74.43;29.98;;;23.80;34.70;;;;;;6156518;28;84275;-70
2021/04/03 08:35:02;;;;;;;63.45;26.10;;;23.80;34.50;;;;;;6118818;27;83295;-70
2021/04/03 08:38:03;;;;;;;60.15;26.65;;;23.80;34.70;;;;;;6149671;28;84493;-70
2021/04/03 08:41:03;;;;;;;52.95;24.15;;;23.80;34.50;;;;;;6157113;27;83424;-69
2021/04/03 08:44:04;;;;;;;47.47;23.38;;;23.80;34.50;;;;;;6147414;28;84595;-70
2021/04/03 08:47:04;;;;;;;54.33;24.25;;;23.80;34.70;;;;;;6147662;28;85854;-70
2021/04/03 08:50:05;;;;;;;47.85;21.50;;;23.90;34.70;;;;;;6149643;28;83789;-69
2021/04/03 08:53:06;;;;;;;43.95;21.52;;;23.90;34.70;;;;;;6133474;27;86933;-69
2021/04/03 08:56:06;;;;;;;50.25;20.77;;;23.90;34.90;;;;;;6155351;28;83382;-69
2021/04/03 08:59:07;;;;;;;37.78;18.92;;;23.90;35.20;;;;;;6131699;27;83364;-69
2021/04/03 09:02:07;;;;;;;44.28;17.77;;;23.90;34.90;;;;;;6154242;28;84745;-70
2021/04/03 09:05:08;;;;;;;35.90;17.17;;;23.90;34.80;;;;;;6141942;27;83413;-71
2021/04/03 09:08:08;;;;;;;34.30;14.60;;;23.90;34.90;;;;;;6154318;28;82996;-69
2021/04/03 09:11:09;;;;;;;35.47;16.23;;;23.90;36.30;;;;;;6151269;27;83790;-69
2021/04/03 09:14:09;;;;;;;35.08;16.02;;;23.90;38.50;;;;;;6132565;28;83566;-71
2021/04/03 09:17:10;;;;;;;36.58;16.33;;;24.00;37.70;;;;;;6146790;27;83042;-71
2021/04/03 09:20:13;;;;;;;38.10;14.40;;;24.00;37.00;;;;;;6161027;27;83286;-72
2021/04/03 09:23:13;;;;;;;28.88;13.48;;;24.00;37.60;;;;;;6158348;28;83810;-70
2021/04/03 09:26:14;;;;;;;30.50;14.13;;;24.00;36.90;;;;;;6155405;27;84129;-70
2021/04/03 09:29:14;;;;;;;30.85;13.65;;;24.00;37.40;;;;;;6140816;28;84339;-70
2021/04/03 09:32:15;;;;;;;30.45;13.43;;;24.00;36.70;;;;;;6145193;27;83932;-69
2021/04/03 09:35:15;;;;;;;28.67;12.35;;;24.00;37.30;;;;;;6152220;27;83193;-69
2021/04/03 09:38:23;;;;;;;27.63;12.40;;;24.00;37.00;;;;;;6130415;27;83233;-70
2021/04/03 09:41:23;;;;;;;27.48;12.43;;;24.00;36.80;;;;;;6148088;28;84162;-69
2021/04/03 09:44:24;;;;;;;18.75;9.43;;;23.90;36.00;;;;;;6151772;27;83497;-69
2021/04/03 09:47:25;;;;;;;23.00;9.98;;;24.00;36.70;;;;;;6154759;28;82934;-70
2021/04/03 09:50:25;;;;;;;20.05;9.60;;;24.00;37.30;;;;;;6147492;27;83979;-69
2021/04/03 09:53:26;;;;;;;19.35;9.25;;;24.00;38.00;;;;;;6150037;28;82866;-68
2021/04/03 09:56:26;;;;;;;16.50;8.88;;;24.00;39.20;;;;;;6153626;27;83724;-68
2021/04/03 09:59:27;;;;;;;21.00;9.50;;;24.00;39.20;;;;;;6151869;27;81579;-68
2021/04/03 10:02:28;;;;;;;15.32;8.70;;;24.10;40.70;;;;;;6165498;27;81685;-71
2021/04/03 10:05:28;;;;;;;15.63;8.13;;;24.00;42.10;;;;;;6149796;28;81572;-63
2021/04/03 10:08:29;;;;;;;14.90;7.85;;;24.10;42.00;;;;;;6152398;27;80508;-66
2021/04/03 10:11:29;;;;;;;19.98;8.25;;;24.10;42.20;;;;;;6158335;28;81942;-65
2021/04/03 10:14:30;;;;;;;14.35;8.38;;;24.10;42.00;;;;;;6133142;27;82023;-67
2021/04/03 10:17:30;;;;;;;17.10;7.63;;;24.10;42.00;;;;;;6161039;28;83056;-69
2021/04/03 10:20:31;;;;;;;16.95;7.78;;;24.10;42.00;;;;;;6153051;27;80454;-69
2021/04/03 10:23:31;;;;;;;12.32;7.20;;;24.10;40.70;;;;;;6167170;28;81496;-66
2021/04/03 10:26:32;;;;;;;12.65;6.18;;;24.20;40.40;;;;;;6157210;27;80541;-67
2021/04/03 10:29:32;;;;;;;12.55;6.53;;;24.20;39.60;;;;;;6156703;27;80497;-67
2021/04/03 10:32:33;;;;;;;11.70;6.03;;;24.20;39.80;;;;;;6147997;28;80709;-67
2021/04/03 10:35:33;;;;;;;10.45;6.30;;;24.20;39.30;;;;;;6153538;27;80595;-68
2021/04/03 10:38:34;;;;;;;13.93;5.75;;;24.20;38.70;;;;;;6163267;27;80908;-66
2021/04/03 10:41:35;;;;;;;11.05;6.13;;;24.20;37.40;;;;;;6148267;27;80647;-65
2021/04/03 10:44:35;;;;;;;13.40;6.20;;;24.20;36.90;;;;;;6150361;28;82154;-65
2021/04/03 10:47:36;;;;;;;9.05;5.65;;;24.10;36.40;;;;;;6157887;27;80519;-65
2021/04/03 10:50:37;;;;;;;11.32;5.93;;;24.20;36.10;;;;;;6152111;28;80708;-65
2021/04/03 10:53:37;;;;;;;10.55;5.85;;;24.20;35.60;;;;;;6150398;27;83216;-66
2021/04/03 10:56:38;;;;;;;11.02;5.47;;;24.10;35.30;;;;;;6158069;27;82260;-65
2021/04/03 10:59:38;;;;;;;9.18;5.85;;;24.10;34.90;;;;;;6155319;28;80633;-65
2021/04/03 11:02:39;;;;;;;10.15;5.60;;;24.10;34.70;;;;;;6165335;27;81064;-65
2021/04/03 11:05:39;;;;;;;12.40;5.80;;;24.20;34.40;;;;;;6148879;28;80835;-65
2021/04/03 11:08:40;;;;;;;8.15;5.45;;;24.20;34.60;;;;;;6151063;27;81739;-62
2021/04/03 11:11:40;;;;;;;8.98;5.55;;;24.30;34.40;;;;;;6162817;27;80823;-62
2021/04/03 11:14:41;;;;;;;12.23;6.15;;;24.30;34.30;;;;;;6153388;27;80863;-63
2021/04/03 11:17:41;;;;;;;10.52;5.82;;;24.30;34.10;;;;;;6148117;27;81892;-62
2021/04/03 11:20:42;;;;;;;8.23;5.05;;;24.20;34.20;;;;;;6150342;27;84509;-64
2021/04/03 11:23:43;;;;;;;7.72;5.35;;;24.30;34.10;;;;;;6151225;28;81609;-66
2021/04/03 11:26:43;;;;;;;12.85;5.40;;;24.30;34.50;;;;;;6125642;27;81625;-66
2021/04/03 11:29:44;;;;;;;8.63;4.90;;;24.30;34.10;;;;;;6148416;28;83936;-66
2021/04/03 11:32:44;;;;;;;7.07;4.40;;;24.30;33.90;;;;;;6145093;28;81376;-67
2021/04/03 11:35:45;;;;;;;11.13;5.47;;;24.20;34.50;;;;;;6144151;28;80469;-67
2021/04/03 11:38:45;;;;;;;10.18;5.22;;;24.20;34.50;;;;;;6163914;27;80874;-67
2021/04/03 11:41:46;;;;;;;9.40;5.57;;;24.30;35.70;;;;;;6158966;28;80538;-66
2021/04/03 11:44:47;;;;;;;10.95;5.15;;;24.30;35.10;;;;;;6148738;28;81349;-67
2021/04/03 11:47:48;;;;;;;6.85;4.53;;;24.20;34.60;;;;;;6154671;28;80294;-68
2021/04/03 11:50:48;;;;;;;9.98;4.72;;;24.10;35.10;;;;;;6165777;27;80804;-67
2021/04/03 11:53:49;;;;;;;6.72;4.60;;;24.20;35.20;;;;;;6152191;27;81142;-67
2021/04/03 11:56:49;;;;;;;8.50;4.30;;;24.10;34.90;;;;;;6150382;27;81104;-68
2021/04/03 11:59:50;;;;;;;8.25;4.47;;;24.20;35.10;;;;;;6137992;28;80854;-68
2021/04/03 12:02:50;;;;;;;7.50;4.30;;;24.20;35.10;;;;;;6162326;28;80667;-67
2021/04/03 12:05:51;;;;;;;9.20;4.30;;;24.10;34.80;;;;;;6166984;28;81034;-68
2021/04/03 12:08:51;;;;;;;4.60;3.53;;;24.10;34.60;;;;;;6165641;27;80868;-67
2021/04/03 12:11:53;;;;;;;9.80;4.20;;;24.10;34.60;;;;;;6152470;28;81330;-65
2021/04/03 12:14:54;;;;;;;6.55;3.97;;;24.10;35.10;;;;;;6155541;28;85972;-67
2021/04/03 12:17:55;;;;;;;5.50;3.72;;;24.10;35.20;;;;;;6159280;28;81728;-66
2021/04/03 12:20:55;;;;;;;5.60;3.13;;;24.10;35.10;;;;;;6155186;27;82082;-66
2021/04/03 12:23:56;;;;;;;3.72;3.00;;;24.10;33.60;;;;;;6165049;28;81713;-66
2021/04/03 12:26:56;;;;;;;4.85;2.67;;;24.10;33.80;;;;;;6157520;28;81050;-66
2021/04/03 12:29:57;;;;;;;5.15;3.35;;;24.00;33.90;;;;;;6158239;27;82722;-67
2021/04/03 12:32:58;;;;;;;6.72;2.90;;;24.00;33.80;;;;;;6158788;27;81618;-66
2021/04/03 12:35:58;;;;;;;5.25;2.70;;;24.00;34.10;;;;;;6162131;27;81554;-67
2021/04/03 12:38:59;;;;;;;6.53;3.08;;;24.00;34.50;;;;;;6159436;28;81173;-64
2021/04/03 12:42:00;;;;;;;4.15;2.97;;;24.00;33.60;;;;;;6156471;28;82857;-68
2021/04/03 12:45:00;;;;;;;3.55;2.22;;;24.00;34.20;;;;;;6158747;27;80938;-68
2021/04/03 12:48:01;;;;;;;4.45;3.13;;;24.00;34.70;;;;;;6157764;27;82553;-67
2021/04/03 12:51:02;;;;;;;4.60;2.40;;;24.10;34.50;;;;;;6154459;28;80578;-63
2021/04/03 12:54:02;;;;;;;2.95;2.13;;;24.00;33.80;;;;;;6155735;27;80480;-65
2021/04/03 12:57:03;;;;;;;3.70;2.30;;;24.10;33.90;;;;;;6159093;28;81273;-65
2021/04/03 13:00:03;;;;;;;4.32;2.63;;;24.10;33.50;;;;;;6157947;27;80954;-69
2021/04/03 13:03:04;;;;;;;2.55;2.13;;;24.10;34.40;;;;;;6158701;27;81952;-69
2021/04/03 13:06:05;;;;;;;3.63;2.35;;;24.10;34.10;;;;;;6156250;28;81576;-66
2021/04/03 13:09:05;;;;;;;4.50;2.63;;;24.10;34.70;;;;;;6154287;27;80472;-67
2021/04/03 13:12:06;;;;;;;4.00;2.75;;;24.10;34.30;;;;;;6148252;28;81500;-66
2021/04/03 13:15:06;;;;;;;5.15;2.95;;;24.10;34.50;;;;;;6163579;27;83441;-68
2021/04/03 13:18:07;;;;;;;5.70;3.10;;;24.10;34.60;;;;;;6164488;28;80728;-66
2021/04/03 13:21:10;;;;;;;4.78;3.40;;;24.10;35.30;;;;;;6159456;27;80632;-66
2021/04/03 13:24:10;;;;;;;3.58;2.90;;;24.10;34.90;;;;;;6153954;28;81463;-69
2021/04/03 13:27:11;;;;;;;5.00;3.50;;;24.10;35.80;;;;;;6158492;27;81642;-68
2021/04/03 13:30:11;;;;;;;5.13;3.80;;;24.10;36.40;;;;;;6156299;28;82850;-68
2021/04/03 13:33:12;;;;;;;6.53;3.25;;;24.10;36.20;;;;;;6166258;27;80933;-69
2021/04/03 13:36:13;;;;;;;4.57;3.10;;;24.10;35.50;;;;;;6134613;27;83244;-67
2021/04/03 13:39:13;;;;;;;6.47;3.58;;;24.10;35.20;;;;;;6164488;27;81283;-70
2021/04/03 13:42:14;;;;;;;6.07;3.60;;;24.10;34.80;;;;;;6156287;28;80722;-67
2021/04/03 13:45:14;;;;;;;3.80;3.10;;;24.20;34.50;;;;;;6156517;28;80601;-68
2021/04/03 13:48:15;;;;;;;3.65;3.00;;;24.20;35.00;;;;;;6137503;27;80588;-67
2021/04/03 13:51:15;;;;;;;3.50;3.00;;;24.10;34.80;;;;;;6158133;27;81227;-65
2021/04/03 13:54:16;;;;;;;5.22;3.35;;;24.10;35.10;;;;;;6130644;27;80636;-66
2021/04/03 13:57:17;;;;;;;4.28;2.80;;;24.20;35.50;;;;;;6155745;27;80872;-68
2021/04/03 14:00:20;;;;;;;3.83;2.75;;;24.10;35.20;;;;;;6125476;27;81292;-67
2021/04/03 14:03:20;;;;;;;4.65;2.70;;;24.10;35.80;;;;;;6145701;27;80818;-68
2021/04/03 14:06:21;;;;;;;3.25;2.55;;;24.20;35.20;;;;;;6138048;27;80383;-66
2021/04/03 14:09:21;;;;;;;3.97;2.67;;;24.20;34.90;;;;;;6144418;28;80682;-67
2021/04/03 14:12:22;;;;;;;3.60;2.50;;;24.10;35.20;;;;;;6141172;27;82091;-67
2021/04/03 14:15:22;;;;;;;2.95;2.53;;;24.20;35.30;;;;;;6162504;28;89763;-67
2021/04/03 14:18:23;;;;;;;4.47;2.53;;;24.20;35.30;;;;;;6157633;27;81119;-68
2021/04/03 14:21:24;;;;;;;3.25;2.47;;;24.20;34.70;;;;;;6155093;27;83376;-68
2021/04/03 14:24:24;;;;;;;3.55;2.38;;;24.20;34.60;;;;;;6135400;27;81572;-69
2021/04/03 14:27:25;;;;;;;6.57;2.55;;;24.20;34.70;;;;;;6161746;27;82203;-68
2021/04/03 14:30:25;;;;;;;3.08;2.40;;;24.20;34.10;;;;;;6147312;28;81353;-68
2021/04/03 14:33:26;;;;;;;5.40;2.78;;;24.20;34.30;;;;;;6156975;27;80614;-68
2021/04/03 14:36:27;;;;;;;3.75;2.42;;;24.20;34.10;;;;;;6150004;28;80809;-71
2021/04/03 14:39:27;;;;;;;8.52;2.50;;;24.20;34.30;;;;;;6128009;27;82402;-69
2021/04/03 14:42:28;;;;;;;3.85;2.58;;;24.20;34.00;;;;;;6149451;28;80298;-69
2021/04/03 14:45:29;;;;;;;3.22;2.70;;;24.20;33.90;;;;;;6153429;27;80540;-69
2021/04/03 14:48:29;;;;;;;5.20;2.67;;;24.30;33.90;;;;;;6154701;27;80731;-67
2021/04/03 14:51:30;;;;;;;2.78;2.38;;;24.20;34.50;;;;;;6155887;27;81543;-69
2021/04/03 14:54:30;;;;;;;2.80;2.50;;;24.20;34.00;;;;;;6155977;28;80716;-66
2021/04/03 14:57:31;;;;;;;5.22;2.53;;;24.20;33.50;;;;;;6153039;27;81490;-68
2021/04/03 15:00:32;;;;;;;3.50;2.55;;;24.20;34.20;;;;;;6169797;28;80896;-68
2021/04/03 15:03:32;;;;;;;3.92;2.72;;;24.20;33.80;;;;;;6161765;27;80505;-68
2021/04/03 15:06:33;;;;;;;3.78;2.63;;;24.20;33.50;;;;;;6150033;28;81302;-68
2021/04/03 15:09:36;;;;;;;4.78;2.85;;;24.20;33.40;;;;;;6158538;27;81430;-68
2021/04/03 15:12:36;;;;;;;3.75;2.90;;;24.20;33.80;;;;;;6160810;27;81002;-69
2021/04/03 15:15:38;;;;;;;4.38;2.78;;;24.20;33.50;;;;;;6149785;28;80875;-68
2021/04/03 15:18:40;;;;;;;4.88;2.75;;;24.20;33.40;;;;;;6147818;28;80942;-70
2021/04/03 15:21:40;;;;;;;4.40;3.10;;;24.20;33.70;;;;;;6161842;27;80494;-67
2021/04/03 15:24:42;;;;;;;2.40;2.15;;;24.20;33.40;;;;;;6140260;28;83164;-70